sensor_id;sensor_type;location;lat;lon;timestamp;pressure;altitude;pressure_sealevel;temperature;humidity
74881;BME280;63427;49.654;6.596;2023-05-10T06:19:35;99274.68;;;15.97;42.44
74881;BME280;63427;49.654;6.596;2023-05-10T06:22:00;99276.40;;;15.44;43.21
74881;BME280;63427;49.654;6.596;2023-05-10T06:24:32;99285.57;;;15.88;43.27
74881;BME280;63427;49.654;6.596;2023-05-10T06:26:51;99289.02;;;15.63;41.20
74881;BME280;63427;49.654;6.596;2023-05-10T06:29:16;99291.02;;;15.93;41.80
74881;BME280;63427;49.654;6.596;2023-05-10T06:31:42;99290.83;;;16.14;41.47
74881;BME280;63427;49.654;6.596;2023-05-10T06:34:07;99291.35;;;16.17;40.67
74881;BME280;63427;49.654;6.596;2023-05-10T06:36:32;99291.04;;;16.59;40.85
74881;BME280;63427;49.654;6.596;2023-05-10T06:39:03;99291.81;;;16.47;40.62
74881;BME280;63427;49.654;6.596;2023-05-10T06:41:23;99295.15;;;16.48;40.75
74881;BME280;63427;49.654;6.596;2023-05-10T06:43:48;99298.59;;;16.83;40.17
74881;BME280;63427;49.654;6.596;2023-05-10T06:46:14;99300.30;;;16.88;39.83
74881;BME280;63427;49.654;6.596;2023-05-10T06:48:39;99303.54;;;16.43;39.11
74881;BME280;63427;49.654;6.596;2023-05-10T06:51:05;99301.01;;;16.42;40.00
74881;BME280;63427;49.654;6.596;2023-05-10T06:53:30;99307.18;;;16.30;39.79
74881;BME280;63427;49.654;6.596;2023-05-10T06:55:55;99308.14;;;16.32;40.11
74881;BME280;63427;49.654;6.596;2023-05-10T06:58:21;99310.44;;;15.01;41.43
74881;BME280;63427;49.654;6.596;2023-05-10T07:00:46;99308.88;;;15.72;41.22
74881;BME280;63427;49.654;6.596;2023-05-10T07:03:11;99309.85;;;16.19;40.61
74881;BME280;63427;49.654;6.596;2023-05-10T07:05:37;99313.07;;;16.60;39.83
74881;BME280;63427;49.654;6.596;2023-05-10T07:08:02;99315.00;;;16.66;40.05
74881;BME280;63427;49.654;6.596;2023-05-10T07:10:27;99314.82;;;16.23;39.54
74881;BME280;63427;49.654;6.596;2023-05-10T07:12:53;99318.33;;;16.41;39.38
74881;BME280;63427;49.654;6.596;2023-05-10T07:15:18;99316.45;;;17.10;38.60
74881;BME280;63427;49.654;6.596;2023-05-10T07:17:43;99315.26;;;16.57;39.02
74881;BME280;63427;49.654;6.596;2023-05-10T07:20:09;99312.67;;;16.57;39.55
74881;BME280;63427;49.654;6.596;2023-05-10T07:22:34;99311.40;;;16.72;38.92
74881;BME280;63427;49.654;6.596;2023-05-10T07:25:00;99313.64;;;17.14;38.75
74881;BME280;63427;49.654;6.596;2023-05-10T07:27:25;99315.67;;;17.00;39.14
74881;BME280;63427;49.654;6.596;2023-05-10T07:29:50;99319.24;;;17.22;39.70
74881;BME280;63427;49.654;6.596;2023-05-10T07:32:15;99315.76;;;17.13;39.27
74881;BME280;63427;49.654;6.596;2023-05-10T07:34:41;99317.78;;;16.88;39.22
74881;BME280;63427;49.654;6.596;2023-05-10T07:37:06;99317.04;;;17.25;38.85
74881;BME280;63427;49.654;6.596;2023-05-10T07:39:31;99315.08;;;17.36;38.95
74881;BME280;63427;49.654;6.596;2023-05-10T07:41:57;99316.08;;;17.15;39.51
74881;BME280;63427;49.654;6.596;2023-05-10T07:44:22;99318.16;;;17.81;38.34
74881;BME280;63427;49.654;6.596;2023-05-10T07:46:47;99321.77;;;17.65;38.39
74881;BME280;63427;49.654;6.596;2023-05-10T07:49:14;99320.93;;;17.64;38.57
74881;BME280;63427;49.654;6.596;2023-05-10T07:51:38;99324.10;;;17.89;38.16
74881;BME280;63427;49.654;6.596;2023-05-10T07:54:03;99324.47;;;17.69;38.50
74881;BME280;63427;49.654;6.596;2023-05-10T07:56:30;99320.74;;;17.96;38.88
74881;BME280;63427;49.654;6.596;2023-05-10T07:58:54;99319.68;;;17.73;38.21
74881;BME280;63427;49.654;6.596;2023-05-10T08:01:19;99312.70;;;18.15;37.87
74881;BME280;63427;49.654;6.596;2023-05-10T08:03:45;99312.03;;;18.29;38.81
74881;BME280;63427;49.654;6.596;2023-05-10T08:06:10;99311.18;;;18.62;38.54
74881;BME280;63427;49.654;6.596;2023-05-10T08:08:35;99316.07;;;18.42;38.68
74881;BME280;63427;49.654;6.596;2023-05-10T08:11:00;99311.34;;;18.34;38.32
74881;BME280;63427;49.654;6.596;2023-05-10T08:13:26;99309.60;;;18.45;37.86
74881;BME280;63427;49.654;6.596;2023-05-10T08:15:51;99318.98;;;18.45;36.70
74881;BME280;63427;49.654;6.596;2023-05-10T08:18:16;99335.21;;;17.74;38.27
74881;BME280;63427;49.654;6.596;2023-05-10T08:20:42;99336.10;;;17.61;38.94
74881;BME280;63427;49.654;6.596;2023-05-10T08:23:07;99332.15;;;17.37;39.13
74881;BME280;63427;49.654;6.596;2023-05-10T08:25:33;99338.24;;;17.01;39.22
74881;BME280;63427;49.654;6.596;2023-05-10T08:27:58;99339.99;;;16.76;39.74
74881;BME280;63427;49.654;6.596;2023-05-10T08:30:23;99339.29;;;16.53;40.31
74881;BME280;63427;49.654;6.596;2023-05-10T08:32:48;99344.70;;;17.17;40.45
74881;BME280;63427;49.654;6.596;2023-05-10T08:35:13;99345.36;;;17.31;40.32
74881;BME280;63427;49.654;6.596;2023-05-10T08:37:39;99348.74;;;17.35;39.68
74881;BME280;63427;49.654;6.596;2023-05-10T08:40:05;99349.56;;;17.19;39.53
74881;BME280;63427;49.654;6.596;2023-05-10T08:42:30;99353.33;;;17.03;39.74
74881;BME280;63427;49.654;6.596;2023-05-10T08:44:55;99358.23;;;17.29;40.68
74881;BME280;63427;49.654;6.596;2023-05-10T08:47:20;99359.86;;;16.80;40.45
74881;BME280;63427;49.654;6.596;2023-05-10T08:49:47;99362.77;;;16.80;40.75
74881;BME280;63427;49.654;6.596;2023-05-10T08:52:11;99368.64;;;16.30;41.70
74881;BME280;63427;49.654;6.596;2023-05-10T08:54:36;99373.03;;;16.29;41.81
74881;BME280;63427;49.654;6.596;2023-05-10T08:57:01;99370.78;;;16.57;41.04
74881;BME280;63427;49.654;6.596;2023-05-10T08:59:27;99373.76;;;16.60;41.57
74881;BME280;63427;49.654;6.596;2023-05-10T09:01:54;99377.76;;;16.45;42.08
74881;BME280;63427;49.654;6.596;2023-05-10T09:04:19;99382.42;;;16.36;42.56
74881;BME280;63427;49.654;6.596;2023-05-10T09:06:43;99385.26;;;16.42;41.73
74881;BME280;63427;49.654;6.596;2023-05-10T09:09:08;99385.23;;;16.51;41.81
74881;BME280;63427;49.654;6.596;2023-05-10T09:11:34;99387.78;;;16.65;41.28
74881;BME280;63427;49.654;6.596;2023-05-10T09:13:59;99389.00;;;16.22;41.89
74881;BME280;63427;49.654;6.596;2023-05-10T09:16:24;99392.40;;;16.29;42.04
74881;BME280;63427;49.654;6.596;2023-05-10T09:18:50;99392.44;;;16.30;41.62
74881;BME280;63427;49.654;6.596;2023-05-10T09:21:16;99395.10;;;15.96;43.44
74881;BME280;63427;49.654;6.596;2023-05-10T09:23:43;99393.15;;;16.26;41.73
74881;BME280;63427;49.654;6.596;2023-05-10T09:26:07;99399.76;;;15.48;42.84
74881;BME280;63427;49.654;6.596;2023-05-10T09:28:32;99405.99;;;16.70;41.92
74881;BME280;63427;49.654;6.596;2023-05-10T09:30:57;99406.98;;;15.83;43.15
74881;BME280;63427;49.654;6.596;2023-05-10T09:33:23;99408.77;;;15.84;42.85
74881;BME280;63427;49.654;6.596;2023-05-10T09:35:52;99408.40;;;16.86;42.18
74881;BME280;63427;49.654;6.596;2023-05-10T09:38:13;99407.13;;;17.39;41.31
74881;BME280;63427;49.654;6.596;2023-05-10T09:40:39;99410.30;;;17.46;39.99
74881;BME280;63427;49.654;6.596;2023-05-10T09:43:06;99409.37;;;17.03;40.73
74881;BME280;63427;49.654;6.596;2023-05-10T09:45:31;99410.68;;;17.06;39.08
74881;BME280;63427;49.654;6.596;2023-05-10T09:47:56;99414.43;;;17.32;40.23
74881;BME280;63427;49.654;6.596;2023-05-10T09:50:21;99413.46;;;17.70;38.61
74881;BME280;63427;49.654;6.596;2023-05-10T09:52:48;99409.77;;;17.86;39.57
74881;BME280;63427;49.654;6.596;2023-05-10T09:55:11;99408.24;;;17.81;39.14
74881;BME280;63427;49.654;6.596;2023-05-10T09:57:36;99408.02;;;17.96;38.26
74881;BME280;63427;49.654;6.596;2023-05-10T10:00:01;99407.34;;;18.12;37.87
74881;BME280;63427;49.654;6.596;2023-05-10T10:02:28;99408.76;;;18.42;37.56
74881;BME280;63427;49.654;6.596;2023-05-10T10:04:53;99416.39;;;17.33;38.31
74881;BME280;63427;49.654;6.596;2023-05-10T10:07:23;99410.94;;;18.17;39.07
74881;BME280;63427;49.654;6.596;2023-05-10T10:09:43;99409.23;;;18.38;35.29
74881;BME280;63427;49.654;6.596;2023-05-10T10:12:08;99414.13;;;17.62;37.48
74881;BME280;63427;49.654;6.596;2023-05-10T10:14:34;99411.18;;;18.87;34.96
74881;BME280;63427;49.654;6.596;2023-05-10T10:17:00;99408.09;;;18.85;34.77
74881;BME280;63427;49.654;6.596;2023-05-10T10:19:25;99404.98;;;19.36;37.08
74881;BME280;63427;49.654;6.596;2023-05-10T10:21:50;99406.09;;;19.42;35.00
74881;BME280;63427;49.654;6.596;2023-05-10T10:24:14;99403.10;;;19.22;34.22
74881;BME280;63427;49.654;6.596;2023-05-10T10:26:40;99402.64;;;19.46;33.80
74881;BME280;63427;49.654;6.596;2023-05-10T10:29:14;99400.45;;;20.28;31.94
74881;BME280;63427;49.654;6.596;2023-05-10T10:31:36;99398.97;;;20.57;32.28
74881;BME280;63427;49.654;6.596;2023-05-10T10:34:00;99400.58;;;20.94;30.82
74881;BME280;63427;49.654;6.596;2023-05-10T10:36:20;99396.48;;;21.34;31.15
74881;BME280;63427;49.654;6.596;2023-05-10T10:38:56;99397.38;;;21.25;30.18
74881;BME280;63427;49.654;6.596;2023-05-10T10:41:26;99398.07;;;21.12;28.98
74881;BME280;63427;49.654;6.596;2023-05-10T10:43:36;99397.31;;;21.63;29.51
74881;BME280;63427;49.654;6.596;2023-05-10T10:46:16;99395.21;;;20.62;30.34
74881;BME280;63427;49.654;6.596;2023-05-10T10:48:26;99395.08;;;20.78;29.92
74881;BME280;63427;49.654;6.596;2023-05-10T10:50:56;99393.18;;;19.82;31.42
74881;BME280;63427;49.654;6.596;2023-05-10T10:53:16;99394.74;;;21.23;28.50
74881;BME280;63427;49.654;6.596;2023-05-10T10:55:47;99393.10;;;21.77;28.52
74881;BME280;63427;49.654;6.596;2023-05-10T10:58:07;99394.01;;;22.30;28.19
74881;BME280;63427;49.654;6.596;2023-05-10T11:00:33;99398.16;;;21.75;28.95
74881;BME280;63427;49.654;6.596;2023-05-10T11:02:58;99392.76;;;22.56;28.24
74881;BME280;63427;49.654;6.596;2023-05-10T11:05:34;99396.07;;;22.74;28.11
74881;BME280;63427;49.654;6.596;2023-05-10T11:07:52;99392.88;;;22.99;28.68
74881;BME280;63427;49.654;6.596;2023-05-10T11:10:12;99396.68;;;23.14;27.03
74881;BME280;63427;49.654;6.596;2023-05-10T11:15:02;99402.60;;;19.07;29.90
74881;BME280;63427;49.654;6.596;2023-05-10T11:17:27;99399.88;;;21.95;28.61
74881;BME280;63427;49.654;6.596;2023-05-10T11:20:06;99399.89;;;22.76;28.52
74881;BME280;63427;49.654;6.596;2023-05-10T11:22:17;99400.16;;;22.83;27.63
74881;BME280;63427;49.654;6.596;2023-05-10T11:24:56;99403.59;;;23.12;27.21
74881;BME280;63427;49.654;6.596;2023-05-10T11:27:07;99402.24;;;23.49;26.28
74881;BME280;63427;49.654;6.596;2023-05-10T11:29:32;99405.48;;;22.62;26.62
74881;BME280;63427;49.654;6.596;2023-05-10T11:31:58;99407.98;;;22.56;27.63
74881;BME280;63427;49.654;6.596;2023-05-10T11:34:24;99407.03;;;22.90;26.98
74881;BME280;63427;49.654;6.596;2023-05-10T11:36:51;99408.13;;;20.17;29.21
74881;BME280;63427;49.654;6.596;2023-05-10T11:39:12;99408.64;;;22.05;27.68
74881;BME280;63427;49.654;6.596;2023-05-10T11:41:37;99408.93;;;22.75;28.14
74881;BME280;63427;49.654;6.596;2023-05-10T11:44:03;99412.64;;;22.12;25.77
74881;BME280;63427;49.654;6.596;2023-05-10T11:46:28;99412.34;;;22.22;26.81
74881;BME280;63427;49.654;6.596;2023-05-10T11:48:55;99411.96;;;21.92;28.57
74881;BME280;63427;49.654;6.596;2023-05-10T11:51:20;99407.91;;;22.31;27.31
74881;BME280;63427;49.654;6.596;2023-05-10T11:53:43;99409.02;;;22.91;27.64
74881;BME280;63427;49.654;6.596;2023-05-10T11:56:09;99403.40;;;23.87;26.83
74881;BME280;63427;49.654;6.596;2023-05-10T11:58:34;99403.73;;;23.78;25.16
74881;BME280;63427;49.654;6.596;2023-05-10T12:00:59;99403.81;;;24.27;26.52
74881;BME280;63427;49.654;6.596;2023-05-10T12:03:23;99400.33;;;24.79;24.00
74881;BME280;63427;49.654;6.596;2023-05-10T12:05:49;99400.71;;;25.61;25.05
74881;BME280;63427;49.654;6.596;2023-05-10T12:08:19;99399.99;;;24.76;25.32
74881;BME280;63427;49.654;6.596;2023-05-10T12:10:41;99398.66;;;24.95;24.91
74881;BME280;63427;49.654;6.596;2023-05-10T12:13:11;99397.49;;;25.01;24.38
74881;BME280;63427;49.654;6.596;2023-05-10T12:15:32;99403.93;;;25.46;23.30
74881;BME280;63427;49.654;6.596;2023-05-10T12:17:58;99401.10;;;23.55;23.46
74881;BME280;63427;49.654;6.596;2023-05-10T12:20:27;99412.40;;;23.46;23.25
74881;BME280;63427;49.654;6.596;2023-05-10T12:22:52;99412.95;;;24.05;23.61
74881;BME280;63427;49.654;6.596;2023-05-10T12:25:16;99411.87;;;24.02;23.30
74881;BME280;63427;49.654;6.596;2023-05-10T12:27:48;99409.69;;;23.83;23.40
74881;BME280;63427;49.654;6.596;2023-05-10T12:30:08;99411.13;;;24.10;24.07
74881;BME280;63427;49.654;6.596;2023-05-10T12:32:38;99409.13;;;24.13;24.11
74881;BME280;63427;49.654;6.596;2023-05-10T12:34:59;99407.61;;;24.07;23.99
74881;BME280;63427;49.654;6.596;2023-05-10T12:37:28;99410.52;;;24.50;23.67
74881;BME280;63427;49.654;6.596;2023-05-10T12:39:51;99405.13;;;24.43;23.51
74881;BME280;63427;49.654;6.596;2023-05-10T12:42:17;99407.54;;;24.95;22.35
74881;BME280;63427;49.654;6.596;2023-05-10T12:44:43;99406.50;;;26.17;21.40
74881;BME280;63427;49.654;6.596;2023-05-10T12:47:09;99410.72;;;25.66;22.17
74881;BME280;63427;49.654;6.596;2023-05-10T12:49:34;99411.98;;;25.74;22.10
74881;BME280;63427;49.654;6.596;2023-05-10T12:52:00;99405.87;;;25.22;21.97
74881;BME280;63427;49.654;6.596;2023-05-10T12:54:26;99407.29;;;25.41;21.78
74881;BME280;63427;49.654;6.596;2023-05-10T12:56:52;99400.52;;;25.88;22.73
74881;BME280;63427;49.654;6.596;2023-05-10T12:59:18;99403.98;;;25.15;21.90
74881;BME280;63427;49.654;6.596;2023-05-10T13:01:43;99402.84;;;25.18;23.68
74881;BME280;63427;49.654;6.596;2023-05-10T13:04:09;99405.01;;;25.57;22.28
74881;BME280;63427;49.654;6.596;2023-05-10T13:06:35;99403.07;;;25.74;20.48
74881;BME280;63427;49.654;6.596;2023-05-10T13:09:01;99397.38;;;27.21;19.55
74881;BME280;63427;49.654;6.596;2023-05-10T13:11:27;99395.84;;;27.10;19.16
74881;BME280;63427;49.654;6.596;2023-05-10T13:13:52;99395.62;;;27.51;19.09
74881;BME280;63427;49.654;6.596;2023-05-10T13:16:18;99386.66;;;27.68;18.70
74881;BME280;63427;49.654;6.596;2023-05-10T13:18:44;99385.91;;;27.84;19.52
74881;BME280;63427;49.654;6.596;2023-05-10T13:21:10;99388.18;;;28.11;18.19
74881;BME280;63427;49.654;6.596;2023-05-10T13:23:35;99382.77;;;28.91;19.69
74881;BME280;63427;49.654;6.596;2023-05-10T13:26:01;99380.04;;;29.63;16.73
74881;BME280;63427;49.654;6.596;2023-05-10T13:28:27;99378.90;;;29.74;15.66
74881;BME280;63427;49.654;6.596;2023-05-10T13:30:53;99382.19;;;30.65;14.87
74881;BME280;63427;49.654;6.596;2023-05-10T13:33:18;99382.35;;;30.14;15.50
74881;BME280;63427;49.654;6.596;2023-05-10T13:35:44;99381.87;;;30.26;17.99
74881;BME280;63427;49.654;6.596;2023-05-10T13:38:09;99375.83;;;31.43;17.04
74881;BME280;63427;49.654;6.596;2023-05-10T13:40:35;99368.36;;;31.48;15.58
74881;BME280;63427;49.654;6.596;2023-05-10T13:43:01;99361.29;;;32.27;15.49
74881;BME280;63427;49.654;6.596;2023-05-10T13:45:26;99354.56;;;32.84;14.17
74881;BME280;63427;49.654;6.596;2023-05-10T13:47:52;99349.60;;;32.60;13.49
74881;BME280;63427;49.654;6.596;2023-05-10T13:50:17;99352.05;;;33.10;13.46
74881;BME280;63427;49.654;6.596;2023-05-10T13:52:43;99355.81;;;32.58;12.36
74881;BME280;63427;49.654;6.596;2023-05-10T13:55:09;99346.39;;;32.50;14.01
74881;BME280;63427;49.654;6.596;2023-05-10T13:57:34;99345.07;;;33.05;13.36
74881;BME280;63427;49.654;6.596;2023-05-10T14:00:00;99345.12;;;33.11;12.73
74881;BME280;63427;49.654;6.596;2023-05-10T14:02:25;99339.53;;;33.22;13.90
74881;BME280;63427;49.654;6.596;2023-05-10T14:04:51;99338.50;;;33.85;13.42
74881;BME280;63427;49.654;6.596;2023-05-10T14:07:16;99340.27;;;33.31;12.56
74881;BME280;63427;49.654;6.596;2023-05-10T14:09:42;99342.64;;;34.44;12.99
74881;BME280;63427;49.654;6.596;2023-05-10T14:12:08;99340.04;;;34.16;11.63
74881;BME280;63427;49.654;6.596;2023-05-10T14:14:33;99336.04;;;34.33;12.25
74881;BME280;63427;49.654;6.596;2023-05-10T14:16:58;99335.37;;;32.02;11.79
74881;BME280;63427;49.654;6.596;2023-05-10T14:19:24;99338.63;;;32.13;12.94
74881;BME280;63427;49.654;6.596;2023-05-10T14:21:49;99338.33;;;32.42;12.91
74881;BME280;63427;49.654;6.596;2023-05-10T14:24:15;99334.97;;;31.51;13.11
74881;BME280;63427;49.654;6.596;2023-05-10T14:26:41;99335.87;;;30.38;14.98
74881;BME280;63427;49.654;6.596;2023-05-10T14:29:06;99336.66;;;31.46;14.20
74881;BME280;63427;49.654;6.596;2023-05-10T14:31:32;99336.03;;;31.76;15.79
74881;BME280;63427;49.654;6.596;2023-05-10T14:33:57;99334.37;;;31.40;14.87
74881;BME280;63427;49.654;6.596;2023-05-10T14:36:23;99337.38;;;32.33;14.38
74881;BME280;63427;49.654;6.596;2023-05-10T14:38:48;99337.51;;;32.15;14.44
74881;BME280;63427;49.654;6.596;2023-05-10T14:41:15;99350.81;;;29.97;15.43
74881;BME280;63427;49.654;6.596;2023-05-10T14:43:40;99346.80;;;30.50;14.92
74881;BME280;63427;49.654;6.596;2023-05-10T14:46:06;99353.11;;;30.83;15.21
74881;BME280;63427;49.654;6.596;2023-05-10T14:48:31;99353.26;;;26.89;16.73
74881;BME280;63427;49.654;6.596;2023-05-10T14:50:56;99356.08;;;28.43;16.87
74881;BME280;63427;49.654;6.596;2023-05-10T14:53:22;99353.24;;;28.40;18.10
74881;BME280;63427;49.654;6.596;2023-05-10T14:55:48;99353.12;;;27.81;17.26
74881;BME280;63427;49.654;6.596;2023-05-10T14:58:14;99351.23;;;28.66;17.88
74881;BME280;63427;49.654;6.596;2023-05-10T15:00:40;99349.38;;;27.46;19.47
74881;BME280;63427;49.654;6.596;2023-05-10T15:03:06;99345.18;;;26.23;19.37
74881;BME280;63427;49.654;6.596;2023-05-10T15:05:39;99345.54;;;27.91;18.73
74881;BME280;63427;49.654;6.596;2023-05-10T15:07:56;99340.71;;;28.49;18.27
74881;BME280;63427;49.654;6.596;2023-05-10T15:10:22;99337.99;;;28.46;17.33
74881;BME280;63427;49.654;6.596;2023-05-10T15:12:48;99338.91;;;28.86;18.20
74881;BME280;63427;49.654;6.596;2023-05-10T15:15:13;99341.20;;;28.77;18.17
74881;BME280;63427;49.654;6.596;2023-05-10T15:17:39;99342.96;;;28.75;18.11
74881;BME280;63427;49.654;6.596;2023-05-10T15:20:06;99341.56;;;28.59;18.15
74881;BME280;63427;49.654;6.596;2023-05-10T15:22:30;99342.00;;;28.32;18.84
74881;BME280;63427;49.654;6.596;2023-05-10T15:24:56;99342.49;;;27.55;19.53
74881;BME280;63427;49.654;6.596;2023-05-10T15:27:22;99341.80;;;27.71;19.32
74881;BME280;63427;49.654;6.596;2023-05-10T15:29:47;99341.60;;;27.10;20.26
74881;BME280;63427;49.654;6.596;2023-05-10T15:32:13;99343.76;;;27.49;19.92
74881;BME280;63427;49.654;6.596;2023-05-10T15:34:39;99342.32;;;27.16;21.63
74881;BME280;63427;49.654;6.596;2023-05-10T15:37:05;99343.13;;;26.99;18.96
74881;BME280;63427;49.654;6.596;2023-05-10T15:39:31;99350.08;;;27.39;20.09
74881;BME280;63427;49.654;6.596;2023-05-10T15:41:56;99351.68;;;27.02;19.39
74881;BME280;63427;49.654;6.596;2023-05-10T15:44:27;99357.97;;;25.47;21.67
74881;BME280;63427;49.654;6.596;2023-05-10T15:46:48;99356.76;;;24.34;20.07
74881;BME280;63427;49.654;6.596;2023-05-10T15:49:13;99363.83;;;25.56;20.50
74881;BME280;63427;49.654;6.596;2023-05-10T15:51:40;99365.11;;;25.01;21.01
74881;BME280;63427;49.654;6.596;2023-05-10T15:54:06;99369.37;;;25.39;22.28
74881;BME280;63427;49.654;6.596;2023-05-10T15:56:31;99365.60;;;24.16;22.39
74881;BME280;63427;49.654;6.596;2023-05-10T15:58:57;99364.96;;;24.86;21.08
74881;BME280;63427;49.654;6.596;2023-05-10T16:03:49;99361.99;;;24.92;22.17
74881;BME280;63427;49.654;6.596;2023-05-10T16:06:16;99359.50;;;25.08;20.95
74881;BME280;63427;49.654;6.596;2023-05-10T16:08:40;99357.76;;;25.15;20.63
74881;BME280;63427;49.654;6.596;2023-05-10T16:11:07;99353.94;;;25.33;19.53
74881;BME280;63427;49.654;6.596;2023-05-10T16:13:32;99352.24;;;24.81;19.70
74881;BME280;63427;49.654;6.596;2023-05-10T16:15:58;99351.93;;;23.15;20.30
74881;BME280;63427;49.654;6.596;2023-05-10T16:18:23;99347.65;;;22.99;22.07
74881;BME280;63427;49.654;6.596;2023-05-10T16:20:49;99349.68;;;24.35;21.87
74881;BME280;63427;49.654;6.596;2023-05-10T16:23:15;99347.94;;;24.34;21.39
74881;BME280;63427;49.654;6.596;2023-05-10T16:25:41;99348.94;;;24.31;22.14
74881;BME280;63427;49.654;6.596;2023-05-10T16:28:07;99347.96;;;24.87;19.97
74881;BME280;63427;49.654;6.596;2023-05-10T16:30:33;99349.34;;;24.86;21.67
74881;BME280;63427;49.654;6.596;2023-05-10T16:33:00;99349.38;;;23.75;21.22
74881;BME280;63427;49.654;6.596;2023-05-10T16:35:25;99350.18;;;25.47;21.78
74881;BME280;63427;49.654;6.596;2023-05-10T16:37:50;99352.12;;;24.83;21.11
74881;BME280;63427;49.654;6.596;2023-05-10T16:40:17;99350.03;;;24.85;20.85
74881;BME280;63427;49.654;6.596;2023-05-10T16:42:42;99343.74;;;25.33;20.62
74881;BME280;63427;49.654;6.596;2023-05-10T16:45:08;99348.70;;;25.05;21.94
74881;BME280;63427;49.654;6.596;2023-05-10T16:47:34;99346.71;;;25.57;21.36
74881;BME280;63427;49.654;6.596;2023-05-10T16:49:59;99348.91;;;24.61;20.15
74881;BME280;63427;49.654;6.596;2023-05-10T16:52:25;99350.26;;;24.29;20.47
74881;BME280;63427;49.654;6.596;2023-05-10T16:54:53;99351.39;;;23.85;20.66
74881;BME280;63427;49.654;6.596;2023-05-10T16:57:16;99358.81;;;23.33;22.27
74881;BME280;63427;49.654;6.596;2023-05-10T16:59:41;99363.86;;;22.82;21.94
74881;BME280;63427;49.654;6.596;2023-05-10T17:02:07;99365.51;;;23.39;23.36
74881;BME280;63427;49.654;6.596;2023-05-10T17:04:31;99366.93;;;22.90;22.23
74881;BME280;63427;49.654;6.596;2023-05-10T17:06:56;99370.35;;;23.00;23.31
74881;BME280;63427;49.654;6.596;2023-05-10T17:09:27;99374.76;;;21.71;23.00
74881;BME280;63427;49.654;6.596;2023-05-10T17:11:46;99377.10;;;21.83;23.37
74881;BME280;63427;49.654;6.596;2023-05-10T17:14:11;99383.75;;;21.83;24.43
74881;BME280;63427;49.654;6.596;2023-05-10T17:16:36;99388.68;;;22.03;24.57
74881;BME280;63427;49.654;6.596;2023-05-10T17:19:01;99386.96;;;22.26;25.40
74881;BME280;63427;49.654;6.596;2023-05-10T17:21:27;99390.89;;;22.08;25.45
74881;BME280;63427;49.654;6.596;2023-05-10T17:23:52;99389.79;;;22.21;25.74
74881;BME280;63427;49.654;6.596;2023-05-10T17:26:17;99395.20;;;21.95;25.92
74881;BME280;63427;49.654;6.596;2023-05-10T17:28:42;99397.63;;;21.66;26.53
74881;BME280;63427;49.654;6.596;2023-05-10T17:31:07;99399.82;;;21.59;27.42
74881;BME280;63427;49.654;6.596;2023-05-10T17:33:32;99401.32;;;21.62;26.09
74881;BME280;63427;49.654;6.596;2023-05-10T17:35:57;99403.41;;;21.33;26.83
74881;BME280;63427;49.654;6.596;2023-05-10T17:38:22;99407.15;;;21.26;27.45
74881;BME280;63427;49.654;6.596;2023-05-10T17:40:48;99412.30;;;21.56;27.59
74881;BME280;63427;49.654;6.596;2023-05-10T17:43:13;99415.26;;;20.97;28.53
74881;BME280;63427;49.654;6.596;2023-05-10T17:45:46;99425.51;;;20.62;27.54
74881;BME280;63427;49.654;6.596;2023-05-10T17:48:03;99423.94;;;20.37;28.73
74881;BME280;63427;49.654;6.596;2023-05-10T17:50:28;99423.92;;;19.24;28.15
74881;BME280;63427;49.654;6.596;2023-05-10T17:52:53;99430.24;;;20.57;28.41
74881;BME280;63427;49.654;6.596;2023-05-10T17:55:19;99426.48;;;20.43;28.04
74881;BME280;63427;49.654;6.596;2023-05-10T17:57:44;99429.14;;;19.53;28.89
74881;BME280;63427;49.654;6.596;2023-05-10T18:00:10;99439.33;;;15.74;33.71
74881;BME280;63427;49.654;6.596;2023-05-10T18:02:34;99444.06;;;17.61;33.70
74881;BME280;63427;49.654;6.596;2023-05-10T18:04:59;99437.97;;;18.14;31.69
74881;BME280;63427;49.654;6.596;2023-05-10T18:07:25;99438.21;;;18.67;31.75
74881;BME280;63427;49.654;6.596;2023-05-10T18:09:50;99436.99;;;18.90;31.61
74881;BME280;63427;49.654;6.596;2023-05-10T18:12:15;99438.46;;;18.70;31.05
74881;BME280;63427;49.654;6.596;2023-05-10T18:14:41;99436.45;;;19.02;31.07
74881;BME280;63427;49.654;6.596;2023-05-10T18:17:07;99436.97;;;18.69;30.79
74881;BME280;63427;49.654;6.596;2023-05-10T18:19:31;99436.80;;;18.71;31.81
74881;BME280;63427;49.654;6.596;2023-05-10T18:21:57;99439.52;;;18.99;32.08
74881;BME280;63427;49.654;6.596;2023-05-10T18:24:22;99443.84;;;19.04;32.38
74881;BME280;63427;49.654;6.596;2023-05-10T18:26:47;99444.18;;;18.90;32.14
74881;BME280;63427;49.654;6.596;2023-05-10T18:29:15;99446.87;;;18.86;32.63
74881;BME280;63427;49.654;6.596;2023-05-10T18:31:38;99448.15;;;18.91;32.78
74881;BME280;63427;49.654;6.596;2023-05-10T18:34:03;99452.31;;;18.97;32.78
74881;BME280;63427;49.654;6.596;2023-05-10T18:36:31;99450.12;;;19.07;32.86
74881;BME280;63427;49.654;6.596;2023-05-10T18:38:54;99451.88;;;18.97;33.21
74881;BME280;63427;49.654;6.596;2023-05-10T18:41:19;99454.27;;;18.81;33.40
74881;BME280;63427;49.654;6.596;2023-05-10T18:43:44;99453.97;;;18.80;33.84
74881;BME280;63427;49.654;6.596;2023-05-10T18:46:09;99455.65;;;18.58;34.07
74881;BME280;63427;49.654;6.596;2023-05-10T18:48:34;99455.34;;;18.42;34.43
74881;BME280;63427;49.654;6.596;2023-05-10T18:51:00;99452.66;;;18.18;34.62
74881;BME280;63427;49.654;6.596;2023-05-10T18:53:25;99453.45;;;18.38;34.79
74881;BME280;63427;49.654;6.596;2023-05-10T18:55:54;99457.50;;;18.19;35.03
74881;BME280;63427;49.654;6.596;2023-05-10T18:58:16;99461.88;;;17.83;35.18
74881;BME280;63427;49.654;6.596;2023-05-10T19:00:41;99462.46;;;17.84;35.31
74881;BME280;63427;49.654;6.596;2023-05-10T19:03:08;99461.76;;;17.64;35.74
74881;BME280;63427;49.654;6.596;2023-05-10T19:05:32;99458.94;;;17.57;34.80
74881;BME280;63427;49.654;6.596;2023-05-10T19:07:57;99458.68;;;17.34;35.08
74881;BME280;63427;49.654;6.596;2023-05-10T19:10:22;99460.86;;;17.42;35.25
74881;BME280;63427;49.654;6.596;2023-05-10T19:12:48;99464.08;;;17.01;35.23